コペンハーゲン の空港の天気 - METARとTAF

コペンハーゲン国際空港 ( EKCH / CPH ) - デンマーク コペンハーゲン
飛行場実況気象(Metar)
観測時間04/26 18:20 CEST (04/26 16:20 UTC)
風向・風速南 1m/s
視程-
天気現象
なし
気温20℃
湿度60%
気圧1008hPa
METAREKCH 261620Z AUTO 19002KT 9999NDV NCD 20/12 Q1008 NOSIG
過去の天気等 Google飛行場航空写真 Wunderground天気予報

過去48時間のMETAR

飛行場予報(TAF)
発表時間: 4/26 12:59 CEST (4/26 10:59 UTC)
予報対象時間: 26日14時 CEST ~ 27日14時 CEST
風向・風速南東 4m/s
視程10km以上
少しの雲 雲底高度 910m
26日19時 CEST ~ 27日2時 CEST に一時的に
天気現象しゅう雨
全天の4割程度の積乱雲 雲底高度 910m
27日2時 CEST ~ 27日4時 CEST に徐々に
風向・風速西北西 6m/s
視程3000m
天気現象雨霧雨 もや
全天の8割程度の雲 雲底高度 180m
27日4時 CEST ~ 27日8時 CEST に一時的に
視程7000m
天気現象弱い雨
全天の8割程度の雲 雲底高度 460m
27日8時 CEST ~ 27日11時 CEST に徐々に
視程10km以上
天気現象運行に影響にある天気現象が終了
全天の4割程度の雲 雲底高度 460m
TAF EKCH 261059Z 2612/2712 14008KT 9999 FEW030
TEMPO 2617/2624 SHRA SCT030CB
BECMG 2700/2702 30012KT 3000 RADZ BR BKN006
TEMPO 2702/2706 7000 -RA BKN015
BECMG 2706/2709 9999 NSW SCT015